sensor_id;sensor_type;location;lat;lon;timestamp;P1;durP1;ratioP1;P2;durP2;ratioP2
72286;SDS011;60221;45.696;16.076;2023-04-19T00:00:13;10.20;;;4.00;;
72286;SDS011;60221;45.696;16.076;2023-04-19T00:02:40;11.10;;;4.30;;
72286;SDS011;60221;45.696;16.076;2023-04-19T00:05:08;9.10;;;4.30;;
72286;SDS011;60221;45.696;16.076;2023-04-19T00:07:37;8.60;;;3.50;;
72286;SDS011;60221;45.696;16.076;2023-04-19T00:10:04;8.90;;;4.00;;
72286;SDS011;60221;45.696;16.076;2023-04-19T00:12:31;7.90;;;3.40;;
72286;SDS011;60221;45.696;16.076;2023-04-19T00:14:58;8.60;;;2.80;;
72286;SDS011;60221;45.696;16.076;2023-04-19T00:17:25;6.70;;;3.00;;
72286;SDS011;60221;45.696;16.076;2023-04-19T00:19:52;9.20;;;3.30;;
72286;SDS011;60221;45.696;16.076;2023-04-19T00:22:19;8.90;;;3.30;;
72286;SDS011;60221;45.696;16.076;2023-04-19T00:24:46;7.00;;;2.90;;
72286;SDS011;60221;45.696;16.076;2023-04-19T00:27:13;7.50;;;3.00;;
72286;SDS011;60221;45.696;16.076;2023-04-19T00:29:40;9.00;;;3.20;;
72286;SDS011;60221;45.696;16.076;2023-04-19T00:32:07;8.00;;;3.60;;
72286;SDS011;60221;45.696;16.076;2023-04-19T00:34:34;8.40;;;3.50;;
72286;SDS011;60221;45.696;16.076;2023-04-19T00:37:01;7.00;;;2.90;;
72286;SDS011;60221;45.696;16.076;2023-04-19T00:39:31;8.30;;;3.20;;
72286;SDS011;60221;45.696;16.076;2023-04-19T00:41:58;8.50;;;3.50;;
72286;SDS011;60221;45.696;16.076;2023-04-19T00:44:24;7.60;;;2.90;;
72286;SDS011;60221;45.696;16.076;2023-04-19T00:46:52;8.90;;;3.70;;
72286;SDS011;60221;45.696;16.076;2023-04-19T00:49:19;8.10;;;3.30;;
72286;SDS011;60221;45.696;16.076;2023-04-19T00:51:48;7.40;;;2.80;;
72286;SDS011;60221;45.696;16.076;2023-04-19T00:54:15;8.30;;;3.80;;
72286;SDS011;60221;45.696;16.076;2023-04-19T00:56:43;9.00;;;3.70;;
72286;SDS011;60221;45.696;16.076;2023-04-19T00:59:10;8.60;;;3.50;;
72286;SDS011;60221;45.696;16.076;2023-04-19T01:01:37;7.50;;;3.30;;
72286;SDS011;60221;45.696;16.076;2023-04-19T01:04:04;7.10;;;3.30;;
72286;SDS011;60221;45.696;16.076;2023-04-19T01:06:32;7.10;;;3.00;;
72286;SDS011;60221;45.696;16.076;2023-04-19T01:08:59;6.80;;;3.00;;
72286;SDS011;60221;45.696;16.076;2023-04-19T01:11:26;7.60;;;2.30;;
72286;SDS011;60221;45.696;16.076;2023-04-19T01:13:54;6.40;;;2.00;;
72286;SDS011;60221;45.696;16.076;2023-04-19T01:16:22;6.40;;;2.50;;
72286;SDS011;60221;45.696;16.076;2023-04-19T01:18:49;5.70;;;2.40;;
72286;SDS011;60221;45.696;16.076;2023-04-19T01:21:16;5.40;;;2.20;;
72286;SDS011;60221;45.696;16.076;2023-04-19T01:23:44;5.60;;;2.20;;
72286;SDS011;60221;45.696;16.076;2023-04-19T01:26:10;5.60;;;2.10;;
72286;SDS011;60221;45.696;16.076;2023-04-19T01:28:37;6.60;;;2.30;;
72286;SDS011;60221;45.696;16.076;2023-04-19T01:31:04;6.60;;;2.00;;
72286;SDS011;60221;45.696;16.076;2023-04-19T01:33:31;5.80;;;2.30;;
72286;SDS011;60221;45.696;16.076;2023-04-19T01:35:58;5.30;;;1.80;;
72286;SDS011;60221;45.696;16.076;2023-04-19T01:38:25;5.80;;;2.20;;
72286;SDS011;60221;45.696;16.076;2023-04-19T01:40:52;6.50;;;2.40;;
72286;SDS011;60221;45.696;16.076;2023-04-19T01:43:19;6.10;;;1.70;;
72286;SDS011;60221;45.696;16.076;2023-04-19T01:45:45;9.40;;;2.30;;
72286;SDS011;60221;45.696;16.076;2023-04-19T01:48:12;5.40;;;2.10;;
72286;SDS011;60221;45.696;16.076;2023-04-19T01:50:39;6.80;;;2.10;;
72286;SDS011;60221;45.696;16.076;2023-04-19T01:53:06;5.90;;;2.50;;
72286;SDS011;60221;45.696;16.076;2023-04-19T01:55:33;6.70;;;2.20;;
72286;SDS011;60221;45.696;16.076;2023-04-19T01:57:59;5.90;;;2.10;;
72286;SDS011;60221;45.696;16.076;2023-04-19T02:00:27;7.20;;;2.40;;
72286;SDS011;60221;45.696;16.076;2023-04-19T02:02:54;6.60;;;2.80;;
72286;SDS011;60221;45.696;16.076;2023-04-19T02:05:21;6.00;;;2.30;;
72286;SDS011;60221;45.696;16.076;2023-04-19T02:07:48;5.90;;;2.20;;
72286;SDS011;60221;45.696;16.076;2023-04-19T02:10:14;7.10;;;2.10;;
72286;SDS011;60221;45.696;16.076;2023-04-19T02:12:41;5.40;;;2.10;;
72286;SDS011;60221;45.696;16.076;2023-04-19T02:15:08;6.50;;;2.40;;
72286;SDS011;60221;45.696;16.076;2023-04-19T02:17:35;5.70;;;2.10;;
72286;SDS011;60221;45.696;16.076;2023-04-19T02:20:02;6.10;;;2.10;;
72286;SDS011;60221;45.696;16.076;2023-04-19T02:22:30;7.10;;;2.00;;
72286;SDS011;60221;45.696;16.076;2023-04-19T02:24:56;7.00;;;1.90;;
72286;SDS011;60221;45.696;16.076;2023-04-19T02:27:28;5.90;;;2.00;;
72286;SDS011;60221;45.696;16.076;2023-04-19T02:29:55;7.50;;;1.90;;
72286;SDS011;60221;45.696;16.076;2023-04-19T02:32:22;6.10;;;2.10;;
72286;SDS011;60221;45.696;16.076;2023-04-19T02:34:49;5.50;;;2.00;;
72286;SDS011;60221;45.696;16.076;2023-04-19T02:37:16;7.50;;;2.70;;
72286;SDS011;60221;45.696;16.076;2023-04-19T02:39:43;6.20;;;2.40;;
72286;SDS011;60221;45.696;16.076;2023-04-19T02:42:11;6.30;;;1.90;;
72286;SDS011;60221;45.696;16.076;2023-04-19T02:44:38;5.60;;;2.00;;
72286;SDS011;60221;45.696;16.076;2023-04-19T02:47:05;5.50;;;1.80;;
72286;SDS011;60221;45.696;16.076;2023-04-19T02:49:32;6.10;;;1.80;;
72286;SDS011;60221;45.696;16.076;2023-04-19T02:52:02;5.50;;;1.70;;
72286;SDS011;60221;45.696;16.076;2023-04-19T02:54:29;5.60;;;1.90;;
72286;SDS011;60221;45.696;16.076;2023-04-19T02:56:56;5.30;;;2.10;;
72286;SDS011;60221;45.696;16.076;2023-04-19T02:59:23;5.60;;;1.70;;
72286;SDS011;60221;45.696;16.076;2023-04-19T03:01:50;6.60;;;1.90;;
72286;SDS011;60221;45.696;16.076;2023-04-19T03:04:17;4.80;;;1.80;;
72286;SDS011;60221;45.696;16.076;2023-04-19T03:06:44;6.10;;;1.80;;
72286;SDS011;60221;45.696;16.076;2023-04-19T03:09:11;5.40;;;1.70;;
72286;SDS011;60221;45.696;16.076;2023-04-19T03:11:38;5.80;;;2.00;;
72286;SDS011;60221;45.696;16.076;2023-04-19T03:14:05;5.70;;;2.10;;
72286;SDS011;60221;45.696;16.076;2023-04-19T03:16:31;6.10;;;2.10;;
72286;SDS011;60221;45.696;16.076;2023-04-19T03:18:59;6.00;;;1.80;;
72286;SDS011;60221;45.696;16.076;2023-04-19T03:21:27;6.10;;;2.00;;
72286;SDS011;60221;45.696;16.076;2023-04-19T03:23:54;6.10;;;2.00;;
72286;SDS011;60221;45.696;16.076;2023-04-19T03:26:22;6.50;;;2.30;;
72286;SDS011;60221;45.696;16.076;2023-04-19T03:28:51;8.10;;;2.60;;
72286;SDS011;60221;45.696;16.076;2023-04-19T03:31:33;10.40;;;2.30;;
72286;SDS011;60221;45.696;16.076;2023-04-19T03:34:01;5.60;;;2.10;;
72286;SDS011;60221;45.696;16.076;2023-04-19T03:36:33;5.90;;;2.10;;
72286;SDS011;60221;45.696;16.076;2023-04-19T03:39:01;5.70;;;2.10;;
72286;SDS011;60221;45.696;16.076;2023-04-19T03:41:28;7.90;;;3.40;;
72286;SDS011;60221;45.696;16.076;2023-04-19T03:44:01;6.60;;;2.60;;
72286;SDS011;60221;45.696;16.076;2023-04-19T03:46:28;7.30;;;3.10;;
72286;SDS011;60221;45.696;16.076;2023-04-19T03:48:57;7.00;;;2.50;;
72286;SDS011;60221;45.696;16.076;2023-04-19T03:51:24;8.90;;;3.10;;
72286;SDS011;60221;45.696;16.076;2023-04-19T03:53:52;7.60;;;2.80;;
72286;SDS011;60221;45.696;16.076;2023-04-19T03:56:19;7.40;;;2.50;;
72286;SDS011;60221;45.696;16.076;2023-04-19T03:58:46;7.40;;;2.70;;
72286;SDS011;60221;45.696;16.076;2023-04-19T04:01:21;6.90;;;2.80;;
72286;SDS011;60221;45.696;16.076;2023-04-19T04:03:48;6.80;;;2.20;;
72286;SDS011;60221;45.696;16.076;2023-04-19T04:06:16;6.30;;;2.30;;
72286;SDS011;60221;45.696;16.076;2023-04-19T04:08:43;6.10;;;2.00;;
72286;SDS011;60221;45.696;16.076;2023-04-19T04:11:10;5.60;;;2.00;;
72286;SDS011;60221;45.696;16.076;2023-04-19T04:13:37;6.40;;;2.20;;
72286;SDS011;60221;45.696;16.076;2023-04-19T04:16:09;6.30;;;2.40;;
72286;SDS011;60221;45.696;16.076;2023-04-19T04:18:36;5.40;;;2.00;;
72286;SDS011;60221;45.696;16.076;2023-04-19T04:21:05;7.30;;;1.70;;
72286;SDS011;60221;45.696;16.076;2023-04-19T04:23:33;5.50;;;1.70;;
72286;SDS011;60221;45.696;16.076;2023-04-19T04:26:00;5.30;;;1.70;;
72286;SDS011;60221;45.696;16.076;2023-04-19T04:28:46;4.30;;;1.40;;
72286;SDS011;60221;45.696;16.076;2023-04-19T04:31:13;4.60;;;1.10;;
72286;SDS011;60221;45.696;16.076;2023-04-19T04:33:44;5.40;;;1.40;;
72286;SDS011;60221;45.696;16.076;2023-04-19T04:36:11;5.70;;;1.70;;
72286;SDS011;60221;45.696;16.076;2023-04-19T04:38:39;8.10;;;2.70;;
72286;SDS011;60221;45.696;16.076;2023-04-19T04:41:06;10.60;;;5.80;;
72286;SDS011;60221;45.696;16.076;2023-04-19T04:43:34;14.10;;;9.70;;
72286;SDS011;60221;45.696;16.076;2023-04-19T04:46:01;10.70;;;6.90;;
72286;SDS011;60221;45.696;16.076;2023-04-19T04:48:30;11.40;;;6.50;;
72286;SDS011;60221;45.696;16.076;2023-04-19T04:50:57;14.00;;;8.20;;
72286;SDS011;60221;45.696;16.076;2023-04-19T04:53:25;11.30;;;5.90;;
72286;SDS011;60221;45.696;16.076;2023-04-19T04:55:55;10.90;;;6.00;;
72286;SDS011;60221;45.696;16.076;2023-04-19T04:58:22;9.40;;;5.00;;
72286;SDS011;60221;45.696;16.076;2023-04-19T05:00:56;8.70;;;3.90;;
72286;SDS011;60221;45.696;16.076;2023-04-19T05:03:24;8.50;;;3.80;;
72286;SDS011;60221;45.696;16.076;2023-04-19T05:05:55;9.60;;;2.60;;
72286;SDS011;60221;45.696;16.076;2023-04-19T05:08:23;7.40;;;2.30;;
72286;SDS011;60221;45.696;16.076;2023-04-19T05:10:51;7.00;;;1.90;;
72286;SDS011;60221;45.696;16.076;2023-04-19T05:13:19;5.90;;;2.30;;
72286;SDS011;60221;45.696;16.076;2023-04-19T05:15:47;5.20;;;2.10;;
72286;SDS011;60221;45.696;16.076;2023-04-19T05:18:14;9.80;;;5.90;;
72286;SDS011;60221;45.696;16.076;2023-04-19T05:20:41;15.70;;;10.20;;
72286;SDS011;60221;45.696;16.076;2023-04-19T05:23:14;14.70;;;10.20;;
72286;SDS011;60221;45.696;16.076;2023-04-19T05:25:43;12.10;;;8.10;;
72286;SDS011;60221;45.696;16.076;2023-04-19T05:28:10;27.80;;;18.80;;
72286;SDS011;60221;45.696;16.076;2023-04-19T05:31:00;20.50;;;14.00;;
72286;SDS011;60221;45.696;16.076;2023-04-19T05:33:30;23.60;;;16.30;;
72286;SDS011;60221;45.696;16.076;2023-04-19T05:35:57;28.70;;;19.60;;
72286;SDS011;60221;45.696;16.076;2023-04-19T05:38:24;28.00;;;17.70;;
72286;SDS011;60221;45.696;16.076;2023-04-19T05:40:55;19.90;;;15.30;;
72286;SDS011;60221;45.696;16.076;2023-04-19T05:43:22;10.20;;;7.30;;
72286;SDS011;60221;45.696;16.076;2023-04-19T05:45:49;12.60;;;9.10;;
72286;SDS011;60221;45.696;16.076;2023-04-19T05:48:17;17.50;;;14.90;;
72286;SDS011;60221;45.696;16.076;2023-04-19T05:50:55;15.20;;;12.00;;
72286;SDS011;60221;45.696;16.076;2023-04-19T05:53:44;12.00;;;7.00;;
72286;SDS011;60221;45.696;16.076;2023-04-19T05:56:10;11.50;;;6.50;;
72286;SDS011;60221;45.696;16.076;2023-04-19T05:58:37;8.30;;;5.00;;
72286;SDS011;60221;45.696;16.076;2023-04-19T06:01:04;6.10;;;2.90;;
72286;SDS011;60221;45.696;16.076;2023-04-19T06:03:32;6.30;;;3.30;;
72286;SDS011;60221;45.696;16.076;2023-04-19T06:05:59;5.70;;;3.00;;
72286;SDS011;60221;45.696;16.076;2023-04-19T06:08:26;6.30;;;3.00;;
72286;SDS011;60221;45.696;16.076;2023-04-19T06:10:53;7.00;;;3.90;;
72286;SDS011;60221;45.696;16.076;2023-04-19T06:13:30;7.60;;;4.00;;
72286;SDS011;60221;45.696;16.076;2023-04-19T06:15:57;8.10;;;3.60;;
72286;SDS011;60221;45.696;16.076;2023-04-19T06:18:24;7.40;;;3.90;;
72286;SDS011;60221;45.696;16.076;2023-04-19T06:20:51;7.80;;;4.20;;
72286;SDS011;60221;45.696;16.076;2023-04-19T06:23:18;5.30;;;3.10;;
72286;SDS011;60221;45.696;16.076;2023-04-19T06:25:45;8.00;;;3.80;;
72286;SDS011;60221;45.696;16.076;2023-04-19T06:28:14;6.20;;;3.60;;
72286;SDS011;60221;45.696;16.076;2023-04-19T06:30:41;9.00;;;4.20;;
72286;SDS011;60221;45.696;16.076;2023-04-19T06:33:08;14.00;;;6.70;;
72286;SDS011;60221;45.696;16.076;2023-04-19T06:35:34;10.80;;;6.80;;
72286;SDS011;60221;45.696;16.076;2023-04-19T06:38:01;9.50;;;5.10;;
72286;SDS011;60221;45.696;16.076;2023-04-19T06:40:28;11.20;;;6.30;;
72286;SDS011;60221;45.696;16.076;2023-04-19T06:42:55;9.90;;;6.00;;
72286;SDS011;60221;45.696;16.076;2023-04-19T06:45:22;9.70;;;6.80;;
72286;SDS011;60221;45.696;16.076;2023-04-19T06:47:49;9.90;;;5.40;;
72286;SDS011;60221;45.696;16.076;2023-04-19T06:50:16;10.60;;;6.20;;
72286;SDS011;60221;45.696;16.076;2023-04-19T06:52:43;9.90;;;6.20;;
72286;SDS011;60221;45.696;16.076;2023-04-19T06:55:09;10.20;;;5.30;;
72286;SDS011;60221;45.696;16.076;2023-04-19T06:57:37;9.40;;;6.00;;
72286;SDS011;60221;45.696;16.076;2023-04-19T07:00:04;11.80;;;7.70;;
72286;SDS011;60221;45.696;16.076;2023-04-19T07:02:32;10.40;;;5.70;;
72286;SDS011;60221;45.696;16.076;2023-04-19T07:04:59;9.80;;;5.00;;
72286;SDS011;60221;45.696;16.076;2023-04-19T07:07:26;9.70;;;5.50;;
72286;SDS011;60221;45.696;16.076;2023-04-19T07:09:53;8.80;;;5.10;;
72286;SDS011;60221;45.696;16.076;2023-04-19T07:12:20;8.20;;;4.60;;
72286;SDS011;60221;45.696;16.076;2023-04-19T07:14:47;11.40;;;5.20;;
72286;SDS011;60221;45.696;16.076;2023-04-19T07:17:14;10.10;;;5.50;;
72286;SDS011;60221;45.696;16.076;2023-04-19T07:19:40;10.50;;;6.00;;
72286;SDS011;60221;45.696;16.076;2023-04-19T07:22:07;9.40;;;4.80;;
72286;SDS011;60221;45.696;16.076;2023-04-19T07:24:34;10.60;;;6.10;;
72286;SDS011;60221;45.696;16.076;2023-04-19T07:27:01;12.20;;;5.80;;
72286;SDS011;60221;45.696;16.076;2023-04-19T07:29:28;10.50;;;5.50;;
72286;SDS011;60221;45.696;16.076;2023-04-19T07:31:55;10.50;;;5.70;;
72286;SDS011;60221;45.696;16.076;2023-04-19T07:34:22;8.90;;;5.50;;
72286;SDS011;60221;45.696;16.076;2023-04-19T07:36:48;9.60;;;5.10;;
72286;SDS011;60221;45.696;16.076;2023-04-19T07:39:15;10.70;;;6.50;;
72286;SDS011;60221;45.696;16.076;2023-04-19T07:41:42;12.40;;;7.80;;
72286;SDS011;60221;45.696;16.076;2023-04-19T07:44:09;8.20;;;4.70;;
72286;SDS011;60221;45.696;16.076;2023-04-19T07:46:37;9.10;;;4.70;;
72286;SDS011;60221;45.696;16.076;2023-04-19T07:49:05;11.80;;;6.40;;
72286;SDS011;60221;45.696;16.076;2023-04-19T07:51:31;8.80;;;5.20;;
72286;SDS011;60221;45.696;16.076;2023-04-19T07:53:58;10.20;;;5.50;;
72286;SDS011;60221;45.696;16.076;2023-04-19T07:56:26;12.20;;;6.30;;
72286;SDS011;60221;45.696;16.076;2023-04-19T07:58:53;9.80;;;4.80;;
72286;SDS011;60221;45.696;16.076;2023-04-19T08:01:33;9.30;;;5.00;;
72286;SDS011;60221;45.696;16.076;2023-04-19T08:04:00;11.00;;;5.80;;
72286;SDS011;60221;45.696;16.076;2023-04-19T08:06:27;8.90;;;5.20;;
72286;SDS011;60221;45.696;16.076;2023-04-19T08:08:56;10.30;;;4.70;;
72286;SDS011;60221;45.696;16.076;2023-04-19T08:11:23;10.50;;;4.90;;
72286;SDS011;60221;45.696;16.076;2023-04-19T08:13:50;9.90;;;5.00;;
72286;SDS011;60221;45.696;16.076;2023-04-19T08:16:37;10.60;;;5.00;;
72286;SDS011;60221;45.696;16.076;2023-04-19T08:19:06;9.30;;;5.30;;
72286;SDS011;60221;45.696;16.076;2023-04-19T08:21:33;13.10;;;5.50;;
72286;SDS011;60221;45.696;16.076;2023-04-19T08:24:07;9.70;;;4.90;;
72286;SDS011;60221;45.696;16.076;2023-04-19T08:26:34;9.00;;;5.60;;
72286;SDS011;60221;45.696;16.076;2023-04-19T08:29:00;9.00;;;5.00;;
72286;SDS011;60221;45.696;16.076;2023-04-19T08:31:27;10.10;;;5.00;;
72286;SDS011;60221;45.696;16.076;2023-04-19T08:33:54;10.20;;;5.20;;
72286;SDS011;60221;45.696;16.076;2023-04-19T08:36:22;7.40;;;4.90;;
72286;SDS011;60221;45.696;16.076;2023-04-19T08:39:06;9.60;;;5.10;;
72286;SDS011;60221;45.696;16.076;2023-04-19T08:41:43;9.70;;;5.70;;
72286;SDS011;60221;45.696;16.076;2023-04-19T08:44:16;8.60;;;4.40;;
72286;SDS011;60221;45.696;16.076;2023-04-19T08:47:01;9.00;;;4.80;;
72286;SDS011;60221;45.696;16.076;2023-04-19T08:49:27;11.20;;;5.40;;
72286;SDS011;60221;45.696;16.076;2023-04-19T08:51:56;8.50;;;5.00;;
72286;SDS011;60221;45.696;16.076;2023-04-19T08:54:23;8.00;;;5.10;;
72286;SDS011;60221;45.696;16.076;2023-04-19T08:56:52;7.40;;;4.00;;
72286;SDS011;60221;45.696;16.076;2023-04-19T08:59:19;10.60;;;4.90;;
72286;SDS011;60221;45.696;16.076;2023-04-19T09:01:46;8.20;;;4.50;;
72286;SDS011;60221;45.696;16.076;2023-04-19T09:04:14;8.20;;;4.30;;
72286;SDS011;60221;45.696;16.076;2023-04-19T09:07:01;10.60;;;4.90;;
72286;SDS011;60221;45.696;16.076;2023-04-19T09:09:28;7.50;;;4.20;;
72286;SDS011;60221;45.696;16.076;2023-04-19T09:11:59;7.50;;;4.00;;
72286;SDS011;60221;45.696;16.076;2023-04-19T09:14:26;7.90;;;4.30;;
72286;SDS011;60221;45.696;16.076;2023-04-19T09:17:10;8.30;;;4.30;;
72286;SDS011;60221;45.696;16.076;2023-04-19T09:19:44;6.90;;;3.60;;
72286;SDS011;60221;45.696;16.076;2023-04-19T09:22:11;8.40;;;3.90;;
72286;SDS011;60221;45.696;16.076;2023-04-19T09:24:38;8.40;;;4.80;;
72286;SDS011;60221;45.696;16.076;2023-04-19T09:27:08;7.80;;;4.30;;
72286;SDS011;60221;45.696;16.076;2023-04-19T09:29:37;9.70;;;5.40;;
72286;SDS011;60221;45.696;16.076;2023-04-19T09:32:05;8.70;;;5.10;;
72286;SDS011;60221;45.696;16.076;2023-04-19T09:34:32;7.40;;;4.40;;
72286;SDS011;60221;45.696;16.076;2023-04-19T09:37:11;33.00;;;19.00;;
72286;SDS011;60221;45.696;16.076;2023-04-19T09:39:58;16.70;;;10.70;;
72286;SDS011;60221;45.696;16.076;2023-04-19T09:42:43;9.10;;;5.30;;
72286;SDS011;60221;45.696;16.076;2023-04-19T09:45:40;7.70;;;4.10;;
72286;SDS011;60221;45.696;16.076;2023-04-19T09:48:07;11.20;;;5.60;;
72286;SDS011;60221;45.696;16.076;2023-04-19T09:50:35;7.50;;;4.60;;
72286;SDS011;60221;45.696;16.076;2023-04-19T09:53:21;10.20;;;5.10;;
72286;SDS011;60221;45.696;16.076;2023-04-19T09:55:48;8.90;;;5.00;;
72286;SDS011;60221;45.696;16.076;2023-04-19T09:58:27;9.40;;;4.30;;
72286;SDS011;60221;45.696;16.076;2023-04-19T10:01:03;7.90;;;4.50;;
72286;SDS011;60221;45.696;16.076;2023-04-19T10:03:42;8.10;;;4.10;;
72286;SDS011;60221;45.696;16.076;2023-04-19T10:06:12;10.60;;;4.70;;
72286;SDS011;60221;45.696;16.076;2023-04-19T10:09:00;8.80;;;4.10;;
72286;SDS011;60221;45.696;16.076;2023-04-19T10:11:32;10.90;;;5.00;;
72286;SDS011;60221;45.696;16.076;2023-04-19T10:14:08;7.70;;;3.90;;
72286;SDS011;60221;45.696;16.076;2023-04-19T10:16:36;8.60;;;4.80;;
72286;SDS011;60221;45.696;16.076;2023-04-19T10:19:12;7.70;;;4.40;;
72286;SDS011;60221;45.696;16.076;2023-04-19T10:21:41;7.60;;;4.30;;
72286;SDS011;60221;45.696;16.076;2023-04-19T10:24:08;6.80;;;3.50;;
72286;SDS011;60221;45.696;16.076;2023-04-19T10:32:25;6.70;;;3.50;;
72286;SDS011;60221;45.696;16.076;2023-04-19T10:34:52;9.00;;;3.40;;
72286;SDS011;60221;45.696;16.076;2023-04-19T10:37:20;8.10;;;3.90;;
72286;SDS011;60221;45.696;16.076;2023-04-19T10:39:47;7.30;;;3.80;;
72286;SDS011;60221;45.696;16.076;2023-04-19T10:42:14;7.10;;;3.80;;
72286;SDS011;60221;45.696;16.076;2023-04-19T10:44:41;7.90;;;4.30;;
72286;SDS011;60221;45.696;16.076;2023-04-19T10:47:07;6.50;;;3.90;;
72286;SDS011;60221;45.696;16.076;2023-04-19T10:49:45;6.80;;;3.80;;
72286;SDS011;60221;45.696;16.076;2023-04-19T10:52:27;8.20;;;3.70;;
72286;SDS011;60221;45.696;16.076;2023-04-19T10:54:55;6.30;;;3.40;;
72286;SDS011;60221;45.696;16.076;2023-04-19T10:57:22;7.90;;;3.90;;
72286;SDS011;60221;45.696;16.076;2023-04-19T11:00:36;7.30;;;4.20;;
72286;SDS011;60221;45.696;16.076;2023-04-19T11:02:37;7.70;;;3.50;;
72286;SDS011;60221;45.696;16.076;2023-04-19T11:05:04;8.50;;;3.20;;
72286;SDS011;60221;45.696;16.076;2023-04-19T11:07:36;8.20;;;3.60;;
72286;SDS011;60221;45.696;16.076;2023-04-19T11:10:02;6.30;;;3.40;;
72286;SDS011;60221;45.696;16.076;2023-04-19T11:12:30;7.80;;;3.70;;
72286;SDS011;60221;45.696;16.076;2023-04-19T11:14:57;7.20;;;3.40;;
72286;SDS011;60221;45.696;16.076;2023-04-19T11:17:27;5.90;;;3.20;;
72286;SDS011;60221;45.696;16.076;2023-04-19T11:19:55;5.20;;;2.70;;
72286;SDS011;60221;45.696;16.076;2023-04-19T11:22:28;6.80;;;3.80;;
72286;SDS011;60221;45.696;16.076;2023-04-19T11:25:03;9.30;;;4.40;;
72286;SDS011;60221;45.696;16.076;2023-04-19T11:27:30;8.40;;;3.50;;
72286;SDS011;60221;45.696;16.076;2023-04-19T11:30:42;5.90;;;3.10;;
72286;SDS011;60221;45.696;16.076;2023-04-19T11:32:52;7.40;;;4.00;;
72286;SDS011;60221;45.696;16.076;2023-04-19T11:35:19;8.90;;;4.50;;
72286;SDS011;60221;45.696;16.076;2023-04-19T11:37:46;7.40;;;4.10;;
72286;SDS011;60221;45.696;16.076;2023-04-19T11:40:14;6.60;;;3.60;;
72286;SDS011;60221;45.696;16.076;2023-04-19T11:42:41;7.10;;;3.70;;
72286;SDS011;60221;45.696;16.076;2023-04-19T11:45:09;7.00;;;4.90;;
72286;SDS011;60221;45.696;16.076;2023-04-19T11:47:51;7.90;;;4.20;;
72286;SDS011;60221;45.696;16.076;2023-04-19T11:50:35;8.00;;;4.20;;
72286;SDS011;60221;45.696;16.076;2023-04-19T11:53:12;7.30;;;3.60;;
72286;SDS011;60221;45.696;16.076;2023-04-19T11:55:43;7.10;;;3.30;;
72286;SDS011;60221;45.696;16.076;2023-04-19T11:58:21;9.20;;;4.00;;
72286;SDS011;60221;45.696;16.076;2023-04-19T12:00:48;6.80;;;4.00;;
72286;SDS011;60221;45.696;16.076;2023-04-19T12:03:15;6.70;;;3.80;;
72286;SDS011;60221;45.696;16.076;2023-04-19T12:05:52;8.30;;;3.00;;
72286;SDS011;60221;45.696;16.076;2023-04-19T12:08:28;7.30;;;3.40;;
72286;SDS011;60221;45.696;16.076;2023-04-19T12:10:56;6.40;;;3.30;;
72286;SDS011;60221;45.696;16.076;2023-04-19T12:13:24;7.10;;;3.60;;
72286;SDS011;60221;45.696;16.076;2023-04-19T12:15:51;12.30;;;4.70;;
72286;SDS011;60221;45.696;16.076;2023-04-19T12:18:18;8.10;;;5.60;;
72286;SDS011;60221;45.696;16.076;2023-04-19T12:20:45;9.10;;;5.10;;
72286;SDS011;60221;45.696;16.076;2023-04-19T12:23:13;7.30;;;4.00;;
72286;SDS011;60221;45.696;16.076;2023-04-19T12:25:41;11.60;;;4.80;;
72286;SDS011;60221;45.696;16.076;2023-04-19T12:28:08;7.50;;;4.10;;
72286;SDS011;60221;45.696;16.076;2023-04-19T12:30:35;8.70;;;4.20;;
72286;SDS011;60221;45.696;16.076;2023-04-19T12:33:02;7.30;;;4.10;;
72286;SDS011;60221;45.696;16.076;2023-04-19T12:35:29;13.30;;;7.90;;
72286;SDS011;60221;45.696;16.076;2023-04-19T12:37:57;12.00;;;6.60;;
72286;SDS011;60221;45.696;16.076;2023-04-19T12:40:25;9.20;;;4.80;;
72286;SDS011;60221;45.696;16.076;2023-04-19T12:42:52;8.70;;;4.30;;
72286;SDS011;60221;45.696;16.076;2023-04-19T12:45:19;8.70;;;4.50;;
72286;SDS011;60221;45.696;16.076;2023-04-19T12:47:47;10.40;;;6.40;;
72286;SDS011;60221;45.696;16.076;2023-04-19T12:50:14;11.80;;;7.60;;
72286;SDS011;60221;45.696;16.076;2023-04-19T12:52:41;12.30;;;8.30;;
72286;SDS011;60221;45.696;16.076;2023-04-19T12:55:08;8.90;;;3.90;;
72286;SDS011;60221;45.696;16.076;2023-04-19T12:57:35;8.50;;;4.00;;
72286;SDS011;60221;45.696;16.076;2023-04-19T13:00:02;8.10;;;4.40;;
72286;SDS011;60221;45.696;16.076;2023-04-19T13:02:32;6.60;;;3.30;;
72286;SDS011;60221;45.696;16.076;2023-04-19T13:05:00;8.10;;;3.70;;
72286;SDS011;60221;45.696;16.076;2023-04-19T13:07:27;6.10;;;3.00;;
72286;SDS011;60221;45.696;16.076;2023-04-19T13:09:54;6.70;;;2.90;;
72286;SDS011;60221;45.696;16.076;2023-04-19T13:12:22;6.40;;;2.90;;
72286;SDS011;60221;45.696;16.076;2023-04-19T13:14:49;7.00;;;3.60;;
72286;SDS011;60221;45.696;16.076;2023-04-19T13:17:18;7.10;;;3.50;;
72286;SDS011;60221;45.696;16.076;2023-04-19T13:19:46;5.10;;;2.20;;
72286;SDS011;60221;45.696;16.076;2023-04-19T13:22:13;6.90;;;3.20;;
72286;SDS011;60221;45.696;16.076;2023-04-19T13:24:40;6.80;;;2.80;;
72286;SDS011;60221;45.696;16.076;2023-04-19T13:27:07;6.20;;;3.20;;
72286;SDS011;60221;45.696;16.076;2023-04-19T13:29:35;6.50;;;3.20;;
72286;SDS011;60221;45.696;16.076;2023-04-19T13:32:02;7.10;;;2.70;;
72286;SDS011;60221;45.696;16.076;2023-04-19T13:34:28;7.30;;;3.20;;
72286;SDS011;60221;45.696;16.076;2023-04-19T13:36:55;7.00;;;3.40;;
72286;SDS011;60221;45.696;16.076;2023-04-19T13:39:23;7.40;;;3.30;;
72286;SDS011;60221;45.696;16.076;2023-04-19T13:41:50;7.80;;;3.60;;
72286;SDS011;60221;45.696;16.076;2023-04-19T13:44:17;6.70;;;3.40;;
72286;SDS011;60221;45.696;16.076;2023-04-19T13:46:44;7.40;;;3.60;;
72286;SDS011;60221;45.696;16.076;2023-04-19T13:49:11;7.80;;;3.50;;
72286;SDS011;60221;45.696;16.076;2023-04-19T13:51:38;8.40;;;4.10;;
72286;SDS011;60221;45.696;16.076;2023-04-19T13:54:16;6.20;;;3.80;;
72286;SDS011;60221;45.696;16.076;2023-04-19T13:56:44;9.90;;;4.00;;
72286;SDS011;60221;45.696;16.076;2023-04-19T13:59:11;7.10;;;3.80;;
72286;SDS011;60221;45.696;16.076;2023-04-19T14:01:38;8.80;;;4.10;;
72286;SDS011;60221;45.696;16.076;2023-04-19T14:04:05;8.00;;;3.70;;
72286;SDS011;60221;45.696;16.076;2023-04-19T14:06:33;9.40;;;4.40;;
72286;SDS011;60221;45.696;16.076;2023-04-19T14:09:00;8.10;;;4.30;;
72286;SDS011;60221;45.696;16.076;2023-04-19T14:11:26;6.80;;;3.80;;
72286;SDS011;60221;45.696;16.076;2023-04-19T14:13:54;8.00;;;4.30;;
72286;SDS011;60221;45.696;16.076;2023-04-19T14:16:21;7.80;;;4.30;;
72286;SDS011;60221;45.696;16.076;2023-04-19T14:18:50;9.90;;;4.20;;
72286;SDS011;60221;45.696;16.076;2023-04-19T14:21:18;9.30;;;4.20;;
72286;SDS011;60221;45.696;16.076;2023-04-19T14:23:45;10.10;;;4.20;;
72286;SDS011;60221;45.696;16.076;2023-04-19T14:26:11;6.90;;;4.10;;
72286;SDS011;60221;45.696;16.076;2023-04-19T14:28:38;7.30;;;3.70;;
72286;SDS011;60221;45.696;16.076;2023-04-19T14:31:05;7.90;;;3.90;;
72286;SDS011;60221;45.696;16.076;2023-04-19T14:33:32;7.70;;;3.70;;
72286;SDS011;60221;45.696;16.076;2023-04-19T14:35:59;8.70;;;3.80;;
72286;SDS011;60221;45.696;16.076;2023-04-19T14:38:26;6.60;;;3.40;;
72286;SDS011;60221;45.696;16.076;2023-04-19T14:40:53;6.80;;;3.10;;
72286;SDS011;60221;45.696;16.076;2023-04-19T14:43:20;6.80;;;3.20;;
72286;SDS011;60221;45.696;16.076;2023-04-19T14:45:47;6.30;;;2.90;;